Time;durP1;ratioP1;P1;durP2;ratioP2;P2;SDS_P1;SDS_P2;PMS_P1;PMS_P2;Temp;Humidity;BMP_temperature;BMP_pressure;BME280_temperature;BME280_humidity;BME280_pressure;Samples;Min_cycle;Max_cycle;Signal;HPM_P1;HPM_P2
2023/06/28 00:01:07;;;;;;;5.00;3.10;;;;;;;-146.58;100.00;69501.63;5031664;28;20365;-65
2023/06/28 00:03:32;;;;;;;6.65;3.55;;;;;;;-146.58;100.00;69501.63;5030168;28;20048;-66
2023/06/28 00:05:58;;;;;;;17.67;3.33;;;;;;;-146.58;100.00;69501.63;5031659;28;20026;-66
2023/06/28 00:08:23;;;;;;;4.75;2.60;;;;;;;-146.58;100.00;69501.63;5030581;28;20496;-66
2023/06/28 00:10:51;;;;;;;2.15;1.98;;;;;;;-146.58;100.00;69501.63;5031335;28;20021;-65
2023/06/28 00:13:17;;;;;;;;;;;;;;;-146.58;100.00;69501.63;5031124;28;20060;-66
2023/06/28 00:15:43;;;;;;;5.75;2.80;;;;;;;-146.58;100.00;69501.63;5031877;28;19967;-66
2023/06/28 00:18:08;;;;;;;7.20;3.28;;;;;;;-146.58;100.00;69501.63;5029904;28;20053;-66
2023/06/28 00:20:34;;;;;;;8.52;3.65;;;;;;;-146.58;100.00;69501.63;5031726;28;20017;-66
2023/06/28 00:23:00;;;;;;;4.25;3.35;;;;;;;-146.58;100.00;69501.63;5029799;28;20021;-66
2023/06/28 00:25:25;;;;;;;10.25;4.00;;;;;;;-146.58;100.00;69501.63;5031178;28;20389;-66
2023/06/28 00:27:50;;;;;;;9.43;3.15;;;;;;;-146.58;100.00;69501.63;5030300;28;20041;-65
2023/06/28 00:30:16;;;;;;;7.15;3.75;;;;;;;-146.58;100.00;69501.63;5030297;28;20042;-66
2023/06/28 00:32:42;;;;;;;3.45;3.17;;;;;;;-146.58;100.00;69501.63;5029876;28;20057;-66
2023/06/28 00:35:07;;;;;;;5.22;3.17;;;;;;;-146.58;100.00;69501.63;5029968;28;20067;-64
2023/06/28 00:37:33;;;;;;;6.03;3.17;;;;;;;-146.58;100.00;69501.63;5031527;28;20033;-64
2023/06/28 00:39:59;;;;;;;6.18;3.33;;;;;;;-146.58;100.00;69501.63;5029464;28;20041;-64
2023/06/28 00:42:25;;;;;;;5.53;3.85;;;;;;;-146.58;100.00;69501.63;5031495;28;20025;-64
2023/06/28 00:44:50;;;;;;;14.52;3.40;;;;;;;-146.58;100.00;69501.63;5029281;28;20539;-64
2023/06/28 00:47:16;;;;;;;9.25;4.13;;;;;;;-146.58;100.00;69501.63;5031029;28;20815;-64
2023/06/28 00:49:42;;;;;;;7.35;2.97;;;;;;;-146.58;100.00;69501.63;5029909;28;20106;-64
2023/06/28 00:52:10;;;;;;;4.28;2.72;;;;;;;-146.58;100.00;69501.63;5030865;28;20029;-64
2023/06/28 00:54:36;;;;;;;6.50;3.07;;;;;;;-146.58;100.00;69501.63;5029413;28;20136;-64
2023/06/28 00:57:02;;;;;;;7.72;4.05;;;;;;;-146.58;100.00;69501.63;5031112;28;20120;-64
2023/06/28 00:59:29;;;;;;;6.75;3.65;;;;;;;-146.58;100.00;69501.63;5029568;28;20069;-64
2023/06/28 01:01:55;;;;;;;4.18;3.10;;;;;;;-146.58;100.00;69501.63;5030576;28;20491;-67
2023/06/28 01:04:20;;;;;;;4.40;2.85;;;;;;;-146.58;100.00;69501.63;5029149;28;20058;-65
2023/06/28 01:06:51;;;;;;;7.38;3.08;;;;;;;-146.58;100.00;69501.63;5030944;28;20029;-66
2023/06/28 01:09:18;;;;;;;5.07;2.90;;;;;;;-146.58;100.00;69501.63;5029262;28;20542;-66
2023/06/28 01:11:43;;;;;;;5.88;3.72;;;;;;;-146.58;100.00;69501.63;5029543;28;20091;-65
2023/06/28 01:14:09;;;;;;;3.70;2.50;;;;;;;-146.58;100.00;69501.63;5028471;28;20488;-65
2023/06/28 01:16:34;;;;;;;13.35;4.93;;;;;;;-146.58;100.00;69501.63;5030604;28;20022;-65
2023/06/28 01:19:03;;;;;;;10.25;4.40;;;;;;;-146.58;100.00;69501.63;5027788;28;20045;-64
2023/06/28 01:21:33;;;;;;;9.18;4.43;;;;;;;-146.58;100.00;69501.63;5030729;28;20029;-64
2023/06/28 01:24:02;;;;;;;7.90;4.03;;;;;;;-146.58;100.00;69501.63;5028635;28;20048;-64
2023/06/28 01:26:27;;;;;;;8.40;2.60;;;;;;;-146.58;100.00;69501.63;5030933;28;20025;-64
2023/06/28 01:28:53;;;;;;;7.05;3.22;;;;;;;-146.58;100.00;69501.63;5029042;28;20037;-64
2023/06/28 01:31:18;;;;;;;7.60;3.05;;;;;;;-146.58;100.00;69501.63;5030447;28;20029;-65
2023/06/28 01:33:46;;;;;;;4.35;2.67;;;;;;;-146.58;100.00;69501.63;5029393;28;20119;-64
2023/06/28 01:36:11;;;;;;;4.45;2.90;;;;;;;-146.58;100.00;69501.63;5030908;28;20105;-65
2023/06/28 01:38:39;;;;;;;4.00;3.22;;;;;;;-146.58;100.00;69501.63;5028614;28;20467;-64
2023/06/28 01:41:06;;;;;;;3.55;2.85;;;;;;;-146.58;100.00;69501.63;5030473;28;20025;-64
2023/06/28 01:43:32;;;;;;;5.50;3.30;;;;;;;-146.58;100.00;69501.63;5029420;28;20065;-65
2023/06/28 01:45:58;;;;;;;6.43;2.90;;;;;;;-146.58;100.00;69501.63;5029956;28;20057;-65
2023/06/28 01:48:25;;;;;;;6.90;4.43;;;;;;;-146.58;100.00;69501.63;5028910;28;20099;-64
2023/06/28 01:50:51;;;;;;;6.32;3.60;;;;;;;-146.58;100.00;69501.63;5030520;28;20035;-65
2023/06/28 01:53:16;;;;;;;6.47;3.40;;;;;;;-146.58;100.00;69501.63;5028729;28;20134;-63
2023/06/28 01:55:42;;;;;;;7.13;3.30;;;;;;;-146.58;100.00;69501.63;5030541;28;20083;-64
2023/06/28 01:58:07;;;;;;;9.45;3.20;;;;;;;-146.58;100.00;69501.63;5028914;28;20036;-65
2023/06/28 02:00:32;;;;;;;12.18;4.13;;;;;;;-146.58;100.00;69501.63;5030227;28;20025;-65
2023/06/28 02:02:58;;;;;;;5.95;3.85;;;;;;;-146.58;100.00;69501.63;5028682;28;20103;-65
2023/06/28 02:05:23;;;;;;;5.43;4.45;;;;;;;-146.58;100.00;69501.63;5030439;28;20029;-65
2023/06/28 02:07:48;;;;;;;13.75;4.88;;;;;;;-146.58;100.00;69501.63;5030015;28;20028;-65
2023/06/28 02:10:17;;;;;;;8.75;4.20;;;;;;;-146.58;100.00;69501.63;5028961;28;20044;-65
2023/06/28 02:12:42;;;;;;;5.93;4.20;;;;;;;-146.58;100.00;69501.63;5030475;28;20021;-65
2023/06/28 02:15:08;;;;;;;9.15;5.28;;;;;;;-146.58;100.00;69501.63;5028294;28;20034;-65
2023/06/28 02:17:36;;;;;;;9.32;6.40;;;;;;;-146.58;100.00;69501.63;5030251;28;20074;-64
2023/06/28 02:20:04;;;;;;;6.68;4.63;;;;;;;-146.58;100.00;69501.63;5028520;28;20045;-64
2023/06/28 02:22:29;;;;;;;9.00;5.15;;;;;;;-146.58;100.00;69501.63;5030028;28;20053;-64
2023/06/28 02:24:54;;;;;;;15.07;5.32;;;;;;;-146.58;100.00;69501.63;5029317;28;20064;-65
2023/06/28 02:27:20;;;;;;;12.85;5.07;;;;;;;-146.58;100.00;69501.63;5034109;28;20033;-65
2023/06/28 02:29:45;;;;;;;9.55;6.55;;;;;;;-146.58;100.00;69501.63;5031789;28;20033;-65
2023/06/28 02:32:11;;;;;;;10.68;4.07;;;;;;;-146.58;100.00;69501.63;5032117;28;20032;-65
2023/06/28 02:34:36;;;;;;;5.55;4.30;;;;;;;-146.58;100.00;69501.63;5031069;28;20120;-65
2023/06/28 02:37:01;;;;;;;6.70;4.80;;;;;;;-146.58;100.00;69501.63;5033335;28;20479;-64
2023/06/28 02:39:27;;;;;;;5.07;4.57;;;;;;;-146.58;100.00;69501.63;5032179;28;20409;-64
2023/06/28 02:41:52;;;;;;;8.32;5.28;;;;;;;-146.58;100.00;69501.63;5033534;28;20022;-64
2023/06/28 02:44:17;;;;;;;5.40;4.90;;;;;;;-146.58;100.00;69501.63;5031982;28;20604;-64
2023/06/28 02:46:43;;;;;;;8.00;4.25;;;;;;;-146.58;100.00;69501.63;5033217;28;20041;-64
2023/06/28 02:49:08;;;;;;;9.05;5.32;;;;;;;-146.58;100.00;69501.63;5031600;28;20038;-64
2023/06/28 02:51:33;;;;;;;11.80;4.65;;;;;;;-146.58;100.00;69501.63;5033420;28;20026;-64
2023/06/28 02:53:59;;;;;;;5.22;4.30;;;;;;;-146.58;100.00;69501.63;5031533;28;20033;-64
2023/06/28 02:56:25;;;;;;;12.38;5.28;;;;;;;-146.58;100.00;69501.63;5033530;28;20071;-64
2023/06/28 02:58:51;;;;;;;6.80;5.28;;;;;;;-146.58;100.00;69501.63;5030280;28;20095;-64
2023/06/28 03:01:17;;;;;;;10.73;4.65;;;;;;;-146.58;100.00;69501.63;5033098;28;20029;-64
2023/06/28 03:03:43;;;;;;;7.85;4.43;;;;;;;-146.58;100.00;69501.63;5031673;28;20053;-64
2023/06/28 03:06:08;;;;;;;8.68;4.95;;;;;;;-146.58;100.00;69501.63;5032773;28;20100;-64
2023/06/28 03:08:34;;;;;;;6.22;4.75;;;;;;;-146.58;100.00;69501.63;5031449;28;20626;-64
2023/06/28 03:10:59;;;;;;;8.18;5.63;;;;;;;-146.58;100.00;69501.63;5031556;28;20029;-64
2023/06/28 03:13:25;;;;;;;12.40;6.63;;;;;;;-146.58;100.00;69501.63;5031516;28;20064;-64
2023/06/28 03:15:50;;;;;;;10.52;5.13;;;;;;;-146.58;100.00;69501.63;5032362;28;20447;-68
2023/06/28 03:18:16;;;;;;;10.15;5.50;;;;;;;-146.58;100.00;69501.63;5031051;28;20520;-66
2023/06/28 03:20:41;;;;;;;13.57;7.25;;;;;;;-146.58;100.00;69501.63;5032745;28;20073;-66
2023/06/28 03:23:06;;;;;;;5.88;4.45;;;;;;;-146.58;100.00;69501.63;5030424;28;20025;-66
2023/06/28 03:25:32;;;;;;;8.95;5.57;;;;;;;-146.58;100.00;69501.63;5032531;28;20029;-66
2023/06/28 03:27:57;;;;;;;7.88;5.10;;;;;;;-146.58;100.00;69501.63;5030637;28;20384;-66
2023/06/28 03:30:23;;;;;;;11.50;4.93;;;;;;;-146.58;100.00;69501.63;5032359;28;20051;-66
2023/06/28 03:32:48;;;;;;;8.73;5.82;;;;;;;-146.58;100.00;69501.63;5031602;28;20033;-67
2023/06/28 03:35:14;;;;;;;5.53;4.50;;;;;;;-146.58;100.00;69501.63;5030505;28;20033;-67
2023/06/28 03:37:39;;;;;;;14.40;7.38;;;;;;;-146.58;100.00;69501.63;5031533;28;20021;-67
2023/06/28 03:40:05;;;;;;;8.50;5.03;;;;;;;-146.58;100.00;69501.63;5030187;28;20045;-66
2023/06/28 03:42:31;;;;;;;11.48;7.32;;;;;;;-146.58;100.00;69501.63;5031188;28;20515;-67
2023/06/28 03:44:56;;;;;;;9.25;5.85;;;;;;;-146.58;100.00;69501.63;5030382;28;20042;-67
2023/06/28 03:47:21;;;;;;;11.95;6.47;;;;;;;-146.58;100.00;69501.63;5032472;28;20037;-66
2023/06/28 03:49:47;;;;;;;10.82;6.45;;;;;;;-146.58;100.00;69501.63;5030833;28;20073;-66
2023/06/28 03:52:13;;;;;;;10.27;5.03;;;;;;;-146.58;100.00;69501.63;5030731;28;20021;-66
2023/06/28 03:54:38;;;;;;;8.18;4.60;;;;;;;-146.58;100.00;69501.63;5030884;28;20044;-66
2023/06/28 03:57:04;;;;;;;12.55;6.97;;;;;;;-146.58;100.00;69501.63;5031359;28;20095;-66
2023/06/28 03:59:30;;;;;;;8.77;4.85;;;;;;;-146.58;100.00;69501.63;5030448;28;20128;-66
2023/06/28 04:01:55;;;;;;;9.38;5.80;;;;;;;-146.58;100.00;69501.63;5031562;28;20025;-66
2023/06/28 04:04:21;;;;;;;11.50;5.70;;;;;;;-146.58;100.00;69501.63;5030381;28;20053;-66
2023/06/28 04:06:46;;;;;;;8.27;4.43;;;;;;;-146.58;100.00;69501.63;5031837;28;20032;-66
2023/06/28 04:09:11;;;;;;;8.68;5.97;;;;;;;-146.58;100.00;69501.63;5030418;28;20103;-66
2023/06/28 04:11:37;;;;;;;9.50;5.57;;;;;;;-146.58;100.00;69501.63;5031953;28;20026;-66
2023/06/28 04:14:02;;;;;;;13.05;4.88;;;;;;;-146.58;100.00;69501.63;5029827;28;20404;-66
2023/06/28 04:16:27;;;;;;;16.33;5.88;;;;;;;-146.58;100.00;69501.63;5032076;28;20040;-66
2023/06/28 04:18:53;;;;;;;4.35;3.95;;;;;;;-146.58;100.00;69501.63;5028915;28;20041;-66
2023/06/28 04:21:19;;;;;;;8.63;5.85;;;;;;;-146.58;100.00;69501.63;5030141;28;20026;-65
2023/06/28 04:23:44;;;;;;;37.88;7.55;;;;;;;-146.58;100.00;69501.63;5030181;28;20129;-63
2023/06/28 04:26:10;;;;;;;9.18;4.65;;;;;;;-146.58;100.00;69501.63;5031436;28;20036;-63
2023/06/28 04:28:35;;;;;;;7.22;6.15;;;;;;;-146.58;100.00;69501.63;5030077;28;20036;-63
2023/06/28 04:31:00;;;;;;;8.15;5.05;;;;;;;-146.58;100.00;69501.63;5031409;28;20022;-62
2023/06/28 04:33:29;;;;;;;11.75;5.18;;;;;;;-146.58;100.00;69501.63;5030210;28;20484;-62
2023/06/28 04:35:56;;;;;;;;;;;;;;;-146.58;100.00;69501.63;5031465;28;20040;-66
2023/06/28 04:38:22;;;;;;;13.07;4.75;;;;;;;-146.58;100.00;69501.63;5029831;28;20280;-68
2023/06/28 04:40:48;;;;;;;8.15;5.68;;;;;;;-146.58;100.00;69501.63;5031216;28;20510;-68
2023/06/28 04:43:14;;;;;;;8.93;4.72;;;;;;;-146.58;100.00;69501.63;5029651;28;20033;-67
2023/06/28 04:45:39;;;;;;;9.70;5.43;;;;;;;-146.58;100.00;69501.63;5031259;28;20044;-64
2023/06/28 04:48:07;;;;;;;7.28;4.35;;;;;;;-146.58;100.00;69501.63;5028764;28;20022;-63
2023/06/28 04:50:33;;;;;;;14.73;5.85;;;;;;;-146.58;100.00;69501.63;5030876;28;20112;-65
2023/06/28 04:52:58;;;;;;;9.48;6.22;;;;;;;-146.58;100.00;69501.63;5029458;28;20032;-64
2023/06/28 04:55:24;;;;;;;8.45;5.45;;;;;;;-146.58;100.00;69501.63;5031294;28;20021;-63
2023/06/28 04:57:50;;;;;;;7.40;4.50;;;;;;;-146.58;100.00;69501.63;5030313;28;20499;-65
2023/06/28 05:00:15;;;;;;;9.43;6.05;;;;;;;-146.58;100.00;69501.63;5029463;28;20045;-63
2023/06/28 05:02:41;;;;;;;7.03;4.43;;;;;;;-146.58;100.00;69501.63;5031016;28;20164;-63
2023/06/28 05:05:06;;;;;;;9.23;7.53;;;;;;;-146.58;100.00;69501.63;5029084;28;20041;-64
2023/06/28 05:07:32;;;;;;;10.55;5.72;;;;;;;-146.58;100.00;69501.63;5031081;28;20029;-64
2023/06/28 05:09:57;;;;;;;8.35;5.07;;;;;;;-146.58;100.00;69501.63;5029373;28;20048;-64
2023/06/28 05:12:22;;;;;;;9.07;5.32;;;;;;;-146.58;100.00;69501.63;5030733;28;20030;-63
2023/06/28 05:14:48;;;;;;;12.98;6.38;;;;;;;-146.58;100.00;69501.63;5029455;28;20041;-63
2023/06/28 05:17:13;;;;;;;9.38;5.45;;;;;;;-146.58;100.00;69501.63;5031059;28;20384;-63
2023/06/28 05:19:38;;;;;;;7.97;5.57;;;;;;;-146.58;100.00;69501.63;5029426;28;20056;-63
2023/06/28 05:22:04;;;;;;;9.88;4.90;;;;;;;-146.58;100.00;69501.63;5030329;28;20026;-63
2023/06/28 05:24:29;;;;;;;7.40;5.82;;;;;;;-146.58;100.00;69501.63;5029587;28;20050;-63
2023/06/28 05:26:54;;;;;;;14.25;6.47;;;;;;;-146.58;100.00;69501.63;5030761;28;20032;-63
2023/06/28 05:29:20;;;;;;;19.38;8.00;;;;;;;-146.58;100.00;69501.63;5028992;28;20412;-64
2023/06/28 05:31:45;;;;;;;6.70;6.05;;;;;;;-146.58;100.00;69501.63;5030924;28;20029;-63
2023/06/28 05:34:13;;;;;;;8.68;4.32;;;;;;;-146.58;100.00;69501.63;5029208;28;20455;-63
2023/06/28 05:36:40;;;;;;;11.35;6.07;;;;;;;-146.58;100.00;69501.63;5030478;28;20503;-63
2023/06/28 05:39:05;;;;;;;9.75;5.38;;;;;;;-146.58;100.00;69501.63;5027750;28;20377;-63
2023/06/28 05:41:30;;;;;;;5.82;5.13;;;;;;;-146.58;100.00;69501.63;5030233;28;20029;-63
2023/06/28 05:43:56;;;;;;;7.47;4.60;;;;;;;-146.58;100.00;69501.63;5028469;28;20037;-63
2023/06/28 05:46:21;;;;;;;10.70;5.60;;;;;;;-146.58;100.00;69501.63;5030263;28;20030;-63
2023/06/28 05:48:49;;;;;;;8.75;6.07;;;;;;;-146.58;100.00;69501.63;5029248;28;20040;-63
2023/06/28 05:51:15;;;;;;;;;;;;;;;-146.58;100.00;69501.63;5029435;28;20029;-63
2023/06/28 05:53:41;;;;;;;10.20;5.97;;;;;;;-146.58;100.00;69501.63;5029247;28;19936;-63
2023/06/28 05:56:06;;;;;;;7.35;5.45;;;;;;;-146.58;100.00;69501.63;5028778;28;20126;-63
2023/06/28 05:58:32;;;;;;;9.32;5.75;;;;;;;-146.58;100.00;69501.63;5026346;28;20068;-63
2023/06/28 06:00:59;;;;;;;5.85;5.18;;;;;;;-146.58;100.00;69501.63;5034411;28;20029;-63
2023/06/28 06:03:24;;;;;;;8.77;5.72;;;;;;;-146.58;100.00;69501.63;5032701;28;20064;-63
2023/06/28 06:05:50;;;;;;;13.57;5.05;;;;;;;-146.58;100.00;69501.63;5033617;28;20415;-63
2023/06/28 06:08:15;;;;;;;5.82;4.40;;;;;;;-146.58;100.00;69501.63;5032883;28;20404;-63
2023/06/28 06:10:40;;;;;;;7.75;5.53;;;;;;;-146.58;100.00;69501.63;5034243;28;20021;-63
2023/06/28 06:13:06;;;;;;;10.30;6.50;;;;;;;-146.58;100.00;69501.63;5032166;28;20033;-63
2023/06/28 06:15:31;;;;;;;13.05;6.13;;;;;;;-146.58;100.00;69501.63;5034195;28;20075;-63
2023/06/28 06:17:57;;;;;;;7.70;6.55;;;;;;;-146.58;100.00;69501.63;5032350;28;20030;-63
2023/06/28 06:20:22;;;;;;;10.80;6.72;;;;;;;-146.58;100.00;69501.63;5033681;28;20017;-63
2023/06/28 06:22:49;;;;;;;13.43;8.07;;;;;;;-146.58;100.00;69501.63;5033860;28;20052;-63
2023/06/28 06:25:15;;;;;;;13.13;6.70;;;;;;;-146.58;100.00;69501.63;5032534;28;20037;-63
2023/06/28 06:27:40;;;;;;;9.65;5.40;;;;;;;-146.58;100.00;69501.63;5033778;28;20087;-63
2023/06/28 06:30:06;;;;;;;10.43;6.35;;;;;;;-146.58;100.00;69501.63;5032319;28;20034;-63
2023/06/28 06:32:32;;;;;;;16.13;7.97;;;;;;;-146.58;100.00;69501.63;5033766;28;20069;-63
2023/06/28 06:34:57;;;;;;;7.68;6.80;;;;;;;-146.58;100.00;69501.63;5031414;28;20049;-63
2023/06/28 06:37:26;;;;;;;14.77;7.15;;;;;;;-146.58;100.00;69501.63;5033663;28;20030;-63
2023/06/28 06:39:53;;;;;;;10.25;6.88;;;;;;;-146.58;100.00;69501.63;5031948;28;20455;-71
2023/06/28 06:42:18;;;;;;;9.60;5.75;;;;;;;-146.58;100.00;69501.63;5033441;28;20025;-69
2023/06/28 06:44:44;;;;;;;11.60;7.38;;;;;;;-146.58;100.00;69501.63;5032155;28;20042;-64
2023/06/28 06:47:09;;;;;;;13.30;7.38;;;;;;;-146.58;100.00;69501.63;5033280;28;20025;-64
2023/06/28 06:49:35;;;;;;;10.20;6.72;;;;;;;-146.58;100.00;69501.63;5031867;28;20048;-63
2023/06/28 06:52:00;;;;;;;13.77;7.05;;;;;;;-146.58;100.00;69501.63;5033237;28;20033;-66
2023/06/28 06:54:29;;;;;;;15.45;8.13;;;;;;;-146.58;100.00;69501.63;5032103;28;20538;-67
2023/06/28 06:56:55;;;;;;;12.20;7.03;;;;;;;-146.58;100.00;69501.63;5032872;28;20021;-67
2023/06/28 06:59:23;;;;;;;10.77;6.97;;;;;;;-146.58;100.00;69501.63;5032077;28;20095;-66
2023/06/28 07:01:51;;;;;;;9.38;6.00;;;;;;;-146.58;100.00;69501.63;5033145;28;20037;-67
2023/06/28 07:04:17;;;;;;;19.48;7.55;;;;;;;-146.58;100.00;69501.63;5031331;28;20045;-65
2023/06/28 07:06:44;;;;;;;9.57;6.38;;;;;;;-146.58;100.00;69501.63;5033203;28;20045;-66
2023/06/28 07:09:10;;;;;;;10.23;6.10;;;;;;;-146.58;100.00;69501.63;5031579;28;20038;-66
2023/06/28 07:11:35;;;;;;;11.07;6.75;;;;;;;-146.58;100.00;69501.63;5031746;28;20017;-66
2023/06/28 07:14:01;;;;;;;11.23;5.65;;;;;;;-146.58;100.00;69501.63;5031706;28;20045;-66
2023/06/28 07:16:26;;;;;;;14.82;5.97;;;;;;;-146.58;100.00;69501.63;5033125;28;20017;-66
2023/06/28 07:18:54;;;;;;;11.90;6.13;;;;;;;-146.58;100.00;69501.63;5031085;28;20041;-66
2023/06/28 07:21:19;;;;;;;17.40;5.85;;;;;;;-146.58;100.00;69501.63;5032994;28;20423;-65
2023/06/28 07:23:46;;;;;;;11.73;5.97;;;;;;;-146.58;100.00;69501.63;5031523;28;20038;-66
2023/06/28 07:26:11;;;;;;;12.75;6.80;;;;;;;-146.58;100.00;69501.63;5032317;28;20021;-66
2023/06/28 07:28:36;;;;;;;9.43;6.40;;;;;;;-146.58;100.00;69501.63;5031290;28;20033;-66
2023/06/28 07:31:02;;;;;;;9.48;6.07;;;;;;;-146.58;100.00;69501.63;5031448;28;20025;-66
2023/06/28 07:33:27;;;;;;;9.52;5.47;;;;;;;-146.58;100.00;69501.63;5026677;28;20041;-66
2023/06/28 07:35:53;;;;;;;14.48;6.93;;;;;;;-146.58;100.00;69501.63;5032419;28;20021;-66
2023/06/28 07:38:19;;;;;;;7.45;5.07;;;;;;;-146.58;100.00;69501.63;5031277;28;20040;-66
2023/06/28 07:40:48;;;;;;;11.68;6.40;;;;;;;-146.58;100.00;69501.63;5032286;28;20532;-67
2023/06/28 07:43:14;;;;;;;12.98;6.85;;;;;;;-146.58;100.00;69501.63;5031199;28;20044;-66
2023/06/28 07:45:40;;;;;;;9.30;7.55;;;;;;;-146.58;100.00;69501.63;5032263;28;20029;-66
2023/06/28 07:48:06;;;;;;;8.95;5.68;;;;;;;-146.58;100.00;69501.63;5030328;28;20021;-66
2023/06/28 07:50:31;;;;;;;16.90;6.03;;;;;;;-146.58;100.00;69501.63;5032529;28;20111;-66
2023/06/28 07:52:57;;;;;;;16.40;6.80;;;;;;;-146.58;100.00;69501.63;5030691;28;20026;-65
2023/06/28 07:55:22;;;;;;;17.30;5.88;;;;;;;-146.58;100.00;69501.63;5032005;28;20021;-66
2023/06/28 07:57:47;;;;;;;14.65;6.05;;;;;;;-146.58;100.00;69501.63;5032148;28;20028;-66
2023/06/28 08:00:13;;;;;;;13.75;6.68;;;;;;;-146.58;100.00;69501.63;5030811;28;20045;-66
2023/06/28 08:02:39;;;;;;;10.52;5.70;;;;;;;-146.58;100.00;69501.63;5031670;28;20017;-66
2023/06/28 08:05:04;;;;;;;7.90;5.47;;;;;;;-146.58;100.00;69501.63;5030098;28;20048;-66
2023/06/28 08:07:29;;;;;;;16.27;5.22;;;;;;;-146.58;100.00;69501.63;5032239;28;20021;-66
2023/06/28 08:09:55;;;;;;;19.83;8.10;;;;;;;-146.58;100.00;69501.63;5028718;28;20504;-66
2023/06/28 08:12:20;;;;;;;9.85;5.15;;;;;;;-146.58;100.00;69501.63;5031743;28;20487;-66
2023/06/28 08:14:46;;;;;;;12.05;6.28;;;;;;;-146.58;100.00;69501.63;5027209;28;20400;-66
2023/06/28 08:17:11;;;;;;;11.40;5.70;;;;;;;-146.58;100.00;69501.63;5031642;28;20034;-66
2023/06/28 08:19:37;;;;;;;6.13;5.32;;;;;;;-146.58;100.00;69501.63;5029878;28;20034;-66
2023/06/28 08:22:05;;;;;;;12.48;6.38;;;;;;;-146.58;100.00;69501.63;5031306;28;20026;-66
2023/06/28 08:24:30;;;;;;;11.60;5.85;;;;;;;-146.58;100.00;69501.63;5028481;28;20135;-66
2023/06/28 08:26:56;;;;;;;11.48;5.53;;;;;;;-146.58;100.00;69501.63;5031028;28;20025;-66
2023/06/28 08:29:22;;;;;;;7.57;4.55;;;;;;;-146.58;100.00;69501.63;5030318;28;20045;-66
2023/06/28 08:31:47;;;;;;;7.32;5.75;;;;;;;-146.58;100.00;69501.63;5031088;28;20393;-66
2023/06/28 08:34:13;;;;;;;10.05;5.55;;;;;;;-146.58;100.00;69501.63;5029648;28;20040;-66
2023/06/28 08:36:38;;;;;;;14.75;5.45;;;;;;;-146.58;100.00;69501.63;5031709;28;20021;-66
2023/06/28 08:39:03;;;;;;;11.48;5.47;;;;;;;-146.58;100.00;69501.63;5029668;28;20103;-66
2023/06/28 08:41:30;;;;;;;18.48;7.90;;;;;;;-146.58;100.00;69501.63;5031083;28;20028;-66
2023/06/28 08:43:59;;;;;;;11.18;7.97;;;;;;;-146.58;100.00;69501.63;5029843;28;20045;-66
2023/06/28 08:46:26;;;;;;;23.20;7.90;;;;;;;-146.58;100.00;69501.63;5031073;28;20017;-66
2023/06/28 08:48:52;;;;;;;14.70;6.00;;;;;;;-146.58;100.00;69501.63;5029187;28;20409;-66
2023/06/28 08:51:18;;;;;;;16.13;6.65;;;;;;;-146.58;100.00;69501.63;5031283;28;20071;-65
2023/06/28 08:53:46;;;;;;;11.55;6.03;;;;;;;-146.58;100.00;69501.63;5029752;28;20042;-66
2023/06/28 08:56:12;;;;;;;10.40;6.13;;;;;;;-146.58;100.00;69501.63;5031018;28;20059;-66
2023/06/28 08:58:38;;;;;;;13.13;5.75;;;;;;;-146.58;100.00;69501.63;5029836;28;20493;-66
2023/06/28 09:01:04;;;;;;;7.07;6.40;;;;;;;-146.58;100.00;69501.63;5031031;28;20029;-66
2023/06/28 09:03:30;;;;;;;11.27;7.22;;;;;;;-146.58;100.00;69501.63;5028976;28;20041;-66
2023/06/28 09:05:57;;;;;;;14.60;7.47;;;;;;;-146.58;100.00;69501.63;5030850;28;20025;-67
2023/06/28 09:08:22;;;;;;;13.35;5.95;;;;;;;-146.58;100.00;69501.63;5029733;28;20033;-66
2023/06/28 09:10:48;;;;;;;7.18;6.43;;;;;;;-146.58;100.00;69501.63;5030262;28;20403;-67
2023/06/28 09:13:19;;;;;;;12.68;6.93;;;;;;;-146.58;100.00;69501.63;5028253;28;20506;-67
2023/06/28 09:15:46;;;;;;;11.43;6.72;;;;;;;-146.58;100.00;69501.63;5030873;28;20022;-66
2023/06/28 09:18:11;;;;;;;16.70;7.38;;;;;;;-146.58;100.00;69501.63;5029006;28;20025;-66
2023/06/28 09:20:37;;;;;;;12.68;6.28;;;;;;;-146.58;100.00;69501.63;5031089;28;20029;-67
2023/06/28 09:23:04;;;;;;;13.07;7.90;;;;;;;-146.58;100.00;69501.63;5029191;28;20022;-66
2023/06/28 09:25:31;;;;;;;12.38;6.82;;;;;;;-146.58;100.00;69501.63;5030326;28;20022;-66
2023/06/28 09:27:58;;;;;;;11.60;8.00;;;;;;;-146.58;100.00;69501.63;5028881;28;20021;-66
2023/06/28 09:30:23;;;;;;;14.50;8.10;;;;;;;-146.58;100.00;69501.63;5030791;28;20487;-66
2023/06/28 09:32:52;;;;;;;16.95;7.63;;;;;;;-146.58;100.00;69501.63;5029721;28;20030;-67
2023/06/28 09:35:18;;;;;;;11.35;7.05;;;;;;;-146.58;100.00;69501.63;5019537;28;20037;-68
2023/06/28 09:38:07;;;;;;;14.65;8.40;;;;;;;-146.58;100.00;69501.63;5015768;28;20400;-67
2023/06/28 09:40:33;;;;;;;;;;;;;;;-146.58;100.00;69501.63;5016712;28;20758;-67
2023/06/28 09:42:58;;;;;;;11.55;6.93;;;;;;;-146.58;100.00;69501.63;5015824;28;19984;-67
2023/06/28 09:45:25;;;;;;;20.27;7.85;;;;;;;-146.58;100.00;69501.63;5023008;28;20025;-68
2023/06/28 09:48:09;;;;;;;13.10;7.75;;;;;;;-146.58;100.00;69501.63;5036632;28;20021;-68
2023/06/28 09:50:38;;;;;;;9.15;5.53;;;;;;;-146.58;100.00;69501.63;5016065;28;20066;-67
2023/06/28 09:53:15;;;;;;;8.15;6.20;;;;;;;-146.58;100.00;69501.63;5015615;28;20088;-67
2023/06/28 09:55:42;;;;;;;17.58;6.47;;;;;;;-146.58;100.00;69501.63;5017245;28;20017;-67
2023/06/28 09:58:09;;;;;;;15.18;6.90;;;;;;;-146.58;100.00;69501.63;5015547;28;20032;-67
2023/06/28 10:00:37;;;;;;;13.23;7.63;;;;;;;-146.58;100.00;69501.63;5014724;28;20060;-67
2023/06/28 10:03:06;;;;;;;10.30;6.13;;;;;;;-146.58;100.00;69501.63;5012966;28;20048;-67
2023/06/28 10:05:35;;;;;;;18.48;8.95;;;;;;;-146.58;100.00;69501.63;5017119;28;20035;-67
2023/06/28 10:08:03;;;;;;;11.85;7.35;;;;;;;-146.58;100.00;69501.63;5014237;28;20028;-67
2023/06/28 10:10:30;;;;;;;11.50;7.15;;;;;;;-146.58;100.00;69501.63;5016892;28;20104;-67
2023/06/28 10:12:58;;;;;;;29.35;7.55;;;;;;;-146.58;100.00;69501.63;5015259;28;20612;-67
2023/06/28 10:15:25;;;;;;;12.85;7.57;;;;;;;-146.58;100.00;69501.63;5017217;28;20469;-67
2023/06/28 10:17:53;;;;;;;7.28;6.07;;;;;;;-146.58;100.00;69501.63;5016524;28;20021;-67
2023/06/28 10:20:19;;;;;;;14.68;5.93;;;;;;;-146.58;100.00;69501.63;5035864;28;20048;-67
2023/06/28 10:22:45;;;;;;;19.92;10.80;;;;;;;-146.58;100.00;69501.63;5036876;28;20022;-67
2023/06/28 10:25:11;;;;;;;9.32;7.07;;;;;;;-146.58;100.00;69501.63;5016110;28;20057;-68
2023/06/28 10:27:37;;;;;;;13.13;7.03;;;;;;;-146.58;100.00;69501.63;5017049;28;20022;-69
2023/06/28 10:30:03;;;;;;;12.18;7.00;;;;;;;-146.58;100.00;69501.63;5015472;28;20489;-67
2023/06/28 10:32:28;;;;;;;14.68;7.53;;;;;;;-146.58;100.00;69501.63;5016825;28;20037;-67
2023/06/28 10:34:56;;;;;;;13.48;5.75;;;;;;;-146.58;100.00;69501.63;5015347;28;20537;-67
2023/06/28 10:37:22;;;;;;;11.17;6.33;;;;;;;-146.58;100.00;69501.63;5017013;28;20029;-67
2023/06/28 10:39:51;;;;;;;11.40;6.68;;;;;;;-146.58;100.00;69501.63;5014959;28;20034;-67
2023/06/28 10:42:18;;;;;;;12.07;7.32;;;;;;;-146.58;100.00;69501.63;5016999;28;20022;-67
2023/06/28 10:44:57;;;;;;;17.95;8.00;;;;;;;-146.58;100.00;69501.63;5013618;28;20045;-67
2023/06/28 10:47:23;;;;;;;13.38;6.90;;;;;;;-146.58;100.00;69501.63;5013553;28;20034;-67
2023/06/28 10:50:11;;;;;;;10.45;8.10;;;;;;;-146.58;100.00;69501.63;5012002;28;20042;-67
2023/06/28 10:52:48;;;;;;;15.70;8.13;;;;;;;-146.58;100.00;69501.63;5013647;28;20494;-67
2023/06/28 10:55:20;;;;;;;15.18;7.38;;;;;;;-146.58;100.00;69501.63;5012310;28;20493;-67
2023/06/28 10:57:45;;;;;;;16.00;8.75;;;;;;;-146.58;100.00;69501.63;5013505;28;20036;-67
2023/06/28 11:00:43;;;;;;;16.42;8.98;;;;;;;-146.58;100.00;69501.63;5010420;28;20042;-67
2023/06/28 11:03:08;;;;;;;11.90;7.82;;;;;;;-146.58;100.00;69501.63;5011959;28;20423;-68